Time;durP1;ratioP1;P1;durP2;ratioP2;P2;SDS_P1;SDS_P2;PMS_P1;PMS_P2;Temp;Humidity;BMP_temperature;BMP_pressure;BME280_temperature;BME280_humidity;BME280_pressure;Samples;Min_cycle;Max_cycle;Signal;HPM_P1;HPM_P2
2022/06/15 00:00:13;;;;;;;3.90;3.00;;;13.90;99.90;;;;;;5058021;28;20230;-60
2022/06/15 00:02:43;;;;;;;5.10;3.03;;;13.80;99.90;;;;;;5076060;28;20196;-63
2022/06/15 00:05:12;;;;;;;4.20;3.10;;;13.80;99.90;;;;;;5077066;28;20290;-63
2022/06/15 00:07:44;;;;;;;8.80;3.50;;;13.70;99.90;;;;;;5072653;28;20221;-60
2022/06/15 00:10:12;;;;;;;6.40;3.33;;;13.60;99.90;;;;;;5038298;28;20296;-60
2022/06/15 00:12:41;;;;;;;3.03;2.83;;;13.50;99.90;;;;;;5055713;28;20199;-61
2022/06/15 00:15:13;;;;;;;6.40;3.47;;;13.50;99.90;;;;;;5056070;28;20193;-60
2022/06/15 00:17:42;;;;;;;3.60;3.30;;;13.40;99.90;;;;;;5071027;28;20196;-60
2022/06/15 00:20:15;;;;;;;4.77;3.77;;;13.40;99.90;;;;;;5063393;28;20661;-60
2022/06/15 00:22:43;;;;;;;7.73;3.50;;;13.40;99.90;;;;;;5088707;28;20241;-60
2022/06/15 00:25:14;;;;;;;3.63;3.30;;;13.30;99.90;;;;;;5075722;28;20196;-60
2022/06/15 00:27:42;;;;;;;4.93;3.67;;;13.30;99.90;;;;;;5056386;28;20266;-60
2022/06/15 00:30:13;;;;;;;6.43;3.67;;;13.20;99.90;;;;;;5055683;28;20188;-60
2022/06/15 00:32:42;;;;;;;6.57;3.70;;;13.20;99.90;;;;;;5040789;28;20192;-60
2022/06/15 00:35:10;;;;;;;5.47;3.70;;;13.20;99.90;;;;;;5057434;28;20338;-60
2022/06/15 00:37:39;;;;;;;4.63;3.60;;;13.20;99.90;;;;;;5075576;28;20188;-59
2022/06/15 00:40:09;;;;;;;7.60;3.87;;;13.10;99.90;;;;;;5075355;28;20587;-60
2022/06/15 00:42:37;;;;;;;5.57;3.30;;;13.10;99.90;;;;;;5075148;28;20561;-59
2022/06/15 00:45:07;;;;;;;4.63;3.40;;;13.00;99.90;;;;;;5075676;28;20592;-60
2022/06/15 00:47:41;;;;;;;7.53;4.30;;;12.90;99.90;;;;;;5075271;28;20204;-60
2022/06/15 00:50:13;;;;;;;7.37;3.87;;;12.90;99.90;;;;;;5071661;28;20195;-59
2022/06/15 00:52:48;;;;;;;4.20;3.80;;;12.90;99.90;;;;;;5062199;28;20185;-60
2022/06/15 00:55:21;;;;;;;6.00;3.47;;;12.90;99.90;;;;;;5059369;28;20206;-60
2022/06/15 00:57:49;;;;;;;4.03;3.40;;;12.80;99.90;;;;;;5074716;28;20187;-60
2022/06/15 01:00:18;;;;;;;7.13;3.77;;;12.80;99.90;;;;;;5072986;28;20232;-60
2022/06/15 01:02:49;;;;;;;5.33;3.70;;;12.80;99.90;;;;;;5056909;28;20191;-60
2022/06/15 01:05:20;;;;;;;5.50;3.77;;;12.70;99.90;;;;;;5074763;28;20530;-60
2022/06/15 01:08:15;;;;;;;5.30;3.80;;;12.70;99.90;;;;;;5074612;28;20227;-60
2022/06/15 01:10:55;;;;;;;6.13;3.83;;;12.70;99.90;;;;;;5037059;28;20189;-60
2022/06/15 01:13:42;;;;;;;6.20;3.90;;;12.70;99.90;;;;;;5054895;28;20181;-60
2022/06/15 01:16:17;;;;;;;7.40;4.00;;;12.60;99.90;;;;;;5066003;28;20275;-59
2022/06/15 01:18:56;;;;;;;6.70;4.10;;;12.60;99.90;;;;;;5074598;28;20266;-60
2022/06/15 01:21:31;;;;;;;4.30;3.90;;;12.50;99.90;;;;;;5057063;28;20194;-60
2022/06/15 01:24:39;;;;;;;5.40;3.67;;;12.50;99.90;;;;;;5056520;28;20194;-60
2022/06/15 01:27:42;;;;;;;6.20;3.90;;;12.50;99.90;;;;;;5013022;28;20186;-60
2022/06/15 01:30:21;;;;;;;7.00;3.90;;;12.50;99.90;;;;;;5054210;28;20203;-60
2022/06/15 01:33:11;;;;;;;3.90;3.70;;;12.40;99.90;;;;;;5086619;28;20199;-60
2022/06/15 01:35:47;;;;;;;6.53;4.30;;;12.40;99.90;;;;;;5060903;28;20199;-60
2022/06/15 01:38:25;;;;;;;4.40;3.97;;;12.40;99.90;;;;;;5071377;28;20194;-60
2022/06/15 01:41:01;;;;;;;5.90;4.63;;;12.30;99.90;;;;;;5055264;28;20208;-60
2022/06/15 01:43:36;;;;;;;7.20;4.47;;;12.20;99.90;;;;;;5054638;28;20188;-60
2022/06/15 01:46:07;;;;;;;5.37;4.47;;;12.20;99.90;;;;;;5054279;28;20219;-61
2022/06/15 01:48:37;;;;;;;6.50;4.47;;;12.20;99.90;;;;;;5069509;28;20592;-59
2022/06/15 01:51:11;;;;;;;7.50;4.50;;;12.20;99.90;;;;;;5067402;28;20219;-60
2022/06/15 01:53:45;;;;;;;12.13;4.50;;;12.20;99.90;;;;;;5074003;28;20200;-60
2022/06/15 01:56:17;;;;;;;7.60;4.10;;;12.10;99.90;;;;;;5038934;28;20185;-60
2022/06/15 01:58:52;;;;;;;5.90;4.33;;;12.10;99.90;;;;;;5073764;28;20645;-60
2022/06/15 02:01:31;;;;;;;4.53;4.10;;;12.10;99.90;;;;;;5087867;28;20195;-59
2022/06/15 02:04:06;;;;;;;4.50;3.93;;;12.00;99.90;;;;;;5073931;28;20203;-59
2022/06/15 02:06:44;;;;;;;6.07;4.13;;;12.00;99.90;;;;;;5073900;28;20203;-60
2022/06/15 02:09:19;;;;;;;5.33;4.40;;;12.00;99.90;;;;;;5073323;28;20243;-60
2022/06/15 02:11:48;;;;;;;6.47;4.43;;;12.00;99.90;;;;;;5073738;28;20294;-59
2022/06/15 02:14:21;;;;;;;7.07;4.63;;;12.00;99.90;;;;;;5061352;28;20235;-60
2022/06/15 02:16:56;;;;;;;8.50;4.90;;;12.00;99.90;;;;;;5052486;28;20426;-60
2022/06/15 02:19:32;;;;;;;9.50;4.57;;;11.90;99.90;;;;;;5060639;28;20191;-60
2022/06/15 02:22:05;;;;;;;6.73;4.60;;;11.80;99.90;;;;;;5052342;28;20526;-60
2022/06/15 02:24:35;;;;;;;11.67;5.27;;;11.80;99.90;;;;;;5053546;28;20272;-60
2022/06/15 02:27:06;;;;;;;6.20;4.60;;;11.80;99.90;;;;;;5035969;28;20220;-60
2022/06/15 02:29:37;;;;;;;7.10;4.40;;;11.70;99.90;;;;;;5053594;28;20623;-60
2022/06/15 02:32:10;;;;;;;8.20;5.07;;;11.70;99.90;;;;;;5053490;28;20193;-59
2022/06/15 02:34:39;;;;;;;5.67;4.90;;;11.70;99.90;;;;;;5055320;28;20192;-60
2022/06/15 02:37:07;;;;;;;9.80;4.87;;;11.70;99.90;;;;;;5072272;28;20291;-60
2022/06/15 02:39:39;;;;;;;5.57;4.90;;;11.70;99.90;;;;;;5073498;28;20656;-60
2022/06/15 02:42:28;;;;;;;8.17;5.00;;;11.70;99.90;;;;;;5073227;28;20196;-60
2022/06/15 02:45:18;;;;;;;6.67;4.97;;;11.70;99.90;;;;;;5072819;28;20260;-60
2022/06/15 02:47:48;;;;;;;5.00;4.53;;;11.70;99.90;;;;;;5073066;28;20200;-59
2022/06/15 02:50:39;;;;;;;6.50;4.80;;;11.70;99.90;;;;;;5077188;28;20211;-59
2022/06/15 02:53:12;;;;;;;6.10;4.40;;;11.60;99.90;;;;;;5035134;28;20595;-60
2022/06/15 02:55:41;;;;;;;4.97;4.53;;;11.60;99.90;;;;;;5067920;28;20279;-60
2022/06/15 02:58:13;;;;;;;5.40;4.90;;;11.60;99.90;;;;;;5072901;28;20624;-59
2022/06/15 03:00:44;;;;;;;9.80;5.50;;;11.60;99.90;;;;;;5072614;28;20227;-59
2022/06/15 03:03:15;;;;;;;5.97;5.00;;;11.50;99.90;;;;;;5090673;28;20199;-60
2022/06/15 03:05:47;;;;;;;10.80;5.00;;;11.50;99.90;;;;;;5076905;28;20669;-59
2022/06/15 03:08:16;;;;;;;7.37;4.90;;;11.40;99.90;;;;;;5057309;28;20192;-59
2022/06/15 03:10:44;;;;;;;5.77;5.10;;;11.40;99.90;;;;;;5057456;28;20196;-60
2022/06/15 03:13:13;;;;;;;9.13;5.73;;;11.30;99.90;;;;;;5057164;28;20641;-60
2022/06/15 03:15:42;;;;;;;7.13;5.10;;;11.30;99.90;;;;;;5057212;28;20192;-60
2022/06/15 03:18:11;;;;;;;5.53;5.00;;;11.30;99.90;;;;;;5072075;28;20193;-59
2022/06/15 03:20:43;;;;;;;8.57;5.70;;;11.30;99.90;;;;;;5063358;28;20275;-60
2022/06/15 03:23:12;;;;;;;6.00;5.47;;;11.30;99.90;;;;;;5056979;28;20200;-60
2022/06/15 03:25:40;;;;;;;7.10;5.47;;;11.30;99.90;;;;;;5056929;28;20192;-59
2022/06/15 03:28:10;;;;;;;8.17;5.90;;;11.30;99.90;;;;;;5062927;28;20231;-60
2022/06/15 03:30:40;;;;;;;7.07;4.90;;;11.20;99.90;;;;;;5075153;28;20223;-60
2022/06/15 03:33:08;;;;;;;12.50;5.43;;;11.30;99.90;;;;;;5076490;28;20304;-59
2022/06/15 03:35:39;;;;;;;8.87;5.43;;;11.30;99.90;;;;;;5076714;28;20188;-60
2022/06/15 03:38:09;;;;;;;9.70;5.33;;;11.20;99.90;;;;;;5063547;28;20196;-60
2022/06/15 03:40:38;;;;;;;6.00;5.37;;;11.20;99.90;;;;;;5076860;28;20198;-60
2022/06/15 03:43:07;;;;;;;9.73;4.70;;;11.20;99.90;;;;;;5076386;28;20254;-59
2022/06/15 03:45:36;;;;;;;5.70;5.10;;;11.20;99.90;;;;;;5058090;28;20204;-60
2022/06/15 03:48:05;;;;;;;8.10;5.40;;;11.20;99.90;;;;;;5056273;28;20252;-60
2022/06/15 03:50:35;;;;;;;7.63;5.27;;;11.10;99.90;;;;;;5063112;28;20206;-60
2022/06/15 03:53:05;;;;;;;9.23;5.53;;;11.10;99.90;;;;;;5076743;28;20279;-60
2022/06/15 03:55:36;;;;;;;10.50;5.60;;;11.20;99.90;;;;;;5051691;28;20212;-60
2022/06/15 03:58:05;;;;;;;7.63;5.60;;;11.20;99.90;;;;;;5056521;28;20591;-60
2022/06/15 04:00:35;;;;;;;9.90;5.70;;;11.30;99.90;;;;;;5087951;28;20595;-60
2022/06/15 04:03:14;;;;;;;7.73;5.90;;;11.30;99.90;;;;;;5096915;28;20244;-59
2022/06/15 04:05:45;;;;;;;7.77;5.43;;;11.30;99.90;;;;;;5092968;28;20652;-59
2022/06/15 04:11:09;;;;;;;7.73;5.47;;;11.20;99.90;;;;;;5095961;28;20234;-60
2022/06/15 04:13:38;;;;;;;9.90;5.37;;;11.20;99.90;;;;;;5040222;28;20204;-62
2022/06/15 04:16:09;;;;;;;9.30;5.90;;;11.20;99.90;;;;;;5058228;28;20238;-59
2022/06/15 04:18:38;;;;;;;13.40;6.20;;;11.20;99.90;;;;;;5074998;28;20207;-60
2022/06/15 04:21:06;;;;;;;7.80;5.57;;;11.20;99.90;;;;;;5075674;28;20234;-62
2022/06/15 04:23:34;;;;;;;10.03;6.50;;;11.30;99.90;;;;;;5057868;28;20548;-59
2022/06/15 04:26:05;;;;;;;11.30;6.17;;;11.40;99.90;;;;;;5058088;28;20246;-60
2022/06/15 04:28:38;;;;;;;10.60;6.10;;;11.40;99.90;;;;;;5041158;28;20715;-60
2022/06/15 04:31:07;;;;;;;6.97;6.10;;;11.50;99.90;;;;;;5075566;28;20212;-60
2022/06/15 04:33:35;;;;;;;12.37;6.50;;;11.50;99.90;;;;;;5075822;28;20194;-59
2022/06/15 04:36:04;;;;;;;11.00;6.73;;;11.60;99.90;;;;;;5075468;28;20211;-59
2022/06/15 04:38:33;;;;;;;12.70;6.70;;;11.70;99.90;;;;;;5075659;28;20199;-60
2022/06/15 04:41:02;;;;;;;8.00;6.77;;;11.80;99.90;;;;;;5075327;28;20200;-59
2022/06/15 04:43:33;;;;;;;8.23;6.73;;;11.90;99.90;;;;;;5075134;28;20196;-59
2022/06/15 04:46:03;;;;;;;11.63;7.23;;;11.90;99.90;;;;;;5075170;28;20242;-60
2022/06/15 04:48:32;;;;;;;7.63;6.83;;;12.00;99.90;;;;;;5075138;28;20196;-60
2022/06/15 04:51:10;;;;;;;9.37;6.27;;;12.10;99.90;;;;;;5075236;28;20223;-59
2022/06/15 04:53:39;;;;;;;9.37;6.83;;;12.20;99.90;;;;;;5074279;28;20675;-60
2022/06/15 04:56:08;;;;;;;9.40;6.87;;;12.30;99.90;;;;;;5074921;28;20232;-60
2022/06/15 04:58:39;;;;;;;11.67;6.70;;;12.40;99.90;;;;;;5075121;28;20278;-60
2022/06/15 05:01:08;;;;;;;11.87;6.93;;;12.50;99.90;;;;;;5056915;28;20223;-60
2022/06/15 05:03:37;;;;;;;8.57;6.10;;;12.70;99.90;;;;;;5075338;28;20283;-60
2022/06/15 05:06:09;;;;;;;6.87;6.17;;;12.70;99.90;;;;;;5074958;28;20192;-60
2022/06/15 05:08:38;;;;;;;7.30;6.43;;;12.90;99.90;;;;;;5054984;28;20271;-59
2022/06/15 05:11:08;;;;;;;6.73;5.93;;;13.00;99.90;;;;;;5054636;28;20216;-60
2022/06/15 05:13:37;;;;;;;10.03;6.50;;;13.00;99.90;;;;;;5076855;28;20243;-60
2022/06/15 05:16:06;;;;;;;7.50;6.50;;;13.10;99.90;;;;;;5056909;28;20249;-60
2022/06/15 05:18:35;;;;;;;9.03;6.73;;;13.20;99.90;;;;;;5074636;28;20526;-60
2022/06/15 05:21:04;;;;;;;8.20;6.43;;;13.30;99.90;;;;;;5074553;28;20548;-60
2022/06/15 05:23:33;;;;;;;9.13;6.33;;;13.50;99.90;;;;;;5074522;28;20548;-60
2022/06/15 05:26:02;;;;;;;8.70;6.83;;;13.60;99.90;;;;;;5068688;28;20541;-60
2022/06/15 05:28:31;;;;;;;9.93;6.47;;;13.70;99.90;;;;;;5074272;28;20675;-60
2022/06/15 05:31:05;;;;;;;9.07;7.33;;;13.90;99.90;;;;;;5073646;28;20204;-60
2022/06/15 05:33:34;;;;;;;14.57;6.87;;;14.10;99.90;;;;;;5074268;28;20188;-61
2022/06/15 05:36:06;;;;;;;7.97;6.20;;;14.20;99.90;;;;;;5079692;28;20207;-59
2022/06/15 05:38:36;;;;;;;10.50;7.40;;;14.30;99.90;;;;;;5089971;28;20198;-60
2022/06/15 05:41:06;;;;;;;10.10;6.33;;;14.40;99.90;;;;;;5073791;28;20197;-60
2022/06/15 05:43:36;;;;;;;10.53;6.90;;;14.60;99.90;;;;;;5072956;28;20219;-60
2022/06/15 05:46:16;;;;;;;14.90;7.43;;;14.70;99.90;;;;;;5053630;28;20217;-60
2022/06/15 05:48:44;;;;;;;11.87;6.77;;;14.90;99.90;;;;;;5090137;28;20195;-59
2022/06/15 05:51:13;;;;;;;11.53;7.27;;;15.10;99.90;;;;;;5094002;28;20220;-61
2022/06/15 05:53:41;;;;;;;12.63;7.23;;;15.20;99.90;;;;;;5073237;28;20220;-60
2022/06/15 05:56:10;;;;;;;8.80;6.53;;;15.40;99.90;;;;;;5073224;28;20267;-60
2022/06/15 05:58:38;;;;;;;9.97;7.13;;;15.50;99.90;;;;;;5074298;28;20230;-60
2022/06/15 06:01:11;;;;;;;10.77;6.80;;;15.70;99.90;;;;;;5070633;28;20232;-60
2022/06/15 06:03:41;;;;;;;11.30;7.00;;;15.80;99.90;;;;;;5055080;28;20211;-60
2022/06/15 06:06:11;;;;;;;12.37;6.80;;;15.90;99.90;;;;;;5075600;28;20279;-60
2022/06/15 06:08:40;;;;;;;12.57;6.87;;;16.00;99.90;;;;;;5073117;28;20363;-60
2022/06/15 06:11:08;;;;;;;13.10;6.80;;;16.10;99.90;;;;;;5055775;28;20220;-60
2022/06/15 06:13:40;;;;;;;10.97;6.47;;;16.20;99.90;;;;;;5042712;28;20197;-60
2022/06/15 06:16:09;;;;;;;9.07;7.13;;;16.30;99.90;;;;;;5053955;28;20307;-60
2022/06/15 06:18:37;;;;;;;18.63;7.57;;;16.50;99.90;;;;;;5053797;28;20198;-60
2022/06/15 06:21:08;;;;;;;10.03;6.47;;;16.50;99.90;;;;;;5053376;28;20553;-60
2022/06/15 06:23:37;;;;;;;7.63;6.40;;;16.60;99.90;;;;;;5052276;28;20194;-61
2022/06/15 06:26:07;;;;;;;11.73;6.27;;;16.70;99.90;;;;;;5072662;28;20717;-61
2022/06/15 06:28:38;;;;;;;12.97;6.93;;;16.80;99.90;;;;;;5073480;28;20664;-60
2022/06/15 06:31:11;;;;;;;14.50;6.43;;;16.90;99.90;;;;;;5072825;28;20204;-61
2022/06/15 06:33:40;;;;;;;13.27;6.43;;;17.00;99.90;;;;;;5073236;28;20184;-60
2022/06/15 06:36:17;;;;;;;12.80;7.27;;;17.10;99.90;;;;;;5073340;28;20197;-61
2022/06/15 06:38:47;;;;;;;11.83;6.30;;;17.20;99.90;;;;;;5073168;28;20222;-60
2022/06/15 06:41:20;;;;;;;9.23;6.17;;;17.30;99.90;;;;;;5072858;28;20188;-61
2022/06/15 06:43:49;;;;;;;9.07;6.40;;;17.30;99.90;;;;;;5073462;28;20213;-60
2022/06/15 06:46:18;;;;;;;11.17;6.50;;;17.50;99.90;;;;;;5073070;28;20222;-61
2022/06/15 06:48:47;;;;;;;10.80;6.40;;;17.50;99.90;;;;;;5072966;28;20220;-61
2022/06/15 06:51:17;;;;;;;10.27;6.43;;;17.60;99.90;;;;;;5055123;28;20211;-61
2022/06/15 06:53:45;;;;;;;11.00;6.67;;;17.70;99.90;;;;;;5073010;28;20207;-60
2022/06/15 06:56:14;;;;;;;11.00;6.10;;;17.80;99.90;;;;;;5073087;28;20203;-61
2022/06/15 06:58:43;;;;;;;13.63;6.40;;;17.90;99.90;;;;;;5073206;28;20223;-61
2022/06/15 07:01:11;;;;;;;10.63;6.40;;;17.90;99.90;;;;;;5072999;28;20557;-60
2022/06/15 07:03:41;;;;;;;7.80;6.20;;;18.00;99.90;;;;;;5073203;28;20200;-61
2022/06/15 07:06:11;;;;;;;6.97;5.63;;;18.00;99.90;;;;;;5061875;28;20250;-61
2022/06/15 07:08:40;;;;;;;13.90;6.30;;;18.20;99.90;;;;;;5064602;28;20196;-60
2022/06/15 07:11:10;;;;;;;16.17;6.13;;;18.20;99.90;;;;;;5072728;28;20216;-61
2022/06/15 07:13:39;;;;;;;16.97;6.03;;;18.30;99.90;;;;;;5073131;28;20245;-60
2022/06/15 07:16:10;;;;;;;14.83;6.37;;;18.60;99.90;;;;;;5073089;28;20192;-60
2022/06/15 07:18:38;;;;;;;13.17;5.80;;;18.70;99.90;;;;;;5071888;28;20196;-60
2022/06/15 07:21:11;;;;;;;14.93;5.67;;;18.70;99.90;;;;;;5072982;28;20191;-60
2022/06/15 07:23:43;;;;;;;10.03;5.90;;;18.80;99.90;;;;;;5072902;28;20193;-61
2022/06/15 07:26:14;;;;;;;12.93;5.80;;;18.90;99.90;;;;;;5052567;28;20522;-60
2022/06/15 07:28:43;;;;;;;11.43;5.80;;;19.20;99.90;;;;;;5052947;28;20591;-60
2022/06/15 07:31:21;;;;;;;7.20;5.37;;;19.40;99.90;;;;;;5054797;28;20215;-60
2022/06/15 07:33:52;;;;;;;18.67;6.30;;;19.60;99.90;;;;;;5072072;28;20275;-61
2022/06/15 07:36:23;;;;;;;13.10;5.93;;;19.80;99.90;;;;;;5072848;28;20659;-61
2022/06/15 07:38:54;;;;;;;14.87;5.70;;;19.90;99.90;;;;;;5072079;28;20263;-60
2022/06/15 07:41:23;;;;;;;7.97;5.60;;;19.90;99.90;;;;;;5085602;28;20192;-61
2022/06/15 07:43:53;;;;;;;10.57;5.47;;;19.90;99.90;;;;;;5086631;28;20192;-61
2022/06/15 07:46:23;;;;;;;12.03;4.93;;;19.90;99.90;;;;;;5085930;28;20215;-60
2022/06/15 07:51:46;;;;;;;9.70;5.33;;;20.50;99.90;;;;;;5037358;28;20270;-61
2022/06/15 07:54:17;;;;;;;11.87;4.57;;;20.80;99.90;;;;;;5075301;28;20278;-60
2022/06/15 07:56:47;;;;;;;10.57;4.97;;;20.90;99.90;;;;;;5076141;28;20241;-60
2022/06/15 07:59:15;;;;;;;7.97;4.83;;;20.90;99.90;;;;;;5075960;28;20228;-61
2022/06/15 08:01:45;;;;;;;9.33;4.77;;;21.00;99.90;;;;;;5058434;28;20236;-60
2022/06/15 08:04:15;;;;;;;13.53;4.63;;;21.10;99.90;;;;;;5076185;28;20218;-60
2022/06/15 08:06:46;;;;;;;9.57;4.37;;;21.10;99.90;;;;;;5058104;28;20204;-60
2022/06/15 08:09:16;;;;;;;9.33;4.60;;;21.20;99.90;;;;;;5058094;28;20250;-61
2022/06/15 08:14:30;;;;;;;9.77;4.50;;;21.40;99.90;;;;;;5075086;28;20564;-61
2022/06/15 08:16:59;;;;;;;6.70;4.13;;;21.40;99.90;;;;;;5074309;28;20208;-60
2022/06/15 08:19:30;;;;;;;12.47;4.53;;;21.50;99.90;;;;;;5075736;28;20583;-61
2022/06/15 08:21:58;;;;;;;4.50;4.07;;;21.70;99.90;;;;;;5075776;28;20193;-60
2022/06/15 08:24:28;;;;;;;13.33;4.10;;;21.80;99.90;;;;;;5075727;28;20271;-60
2022/06/15 08:26:57;;;;;;;10.73;4.27;;;21.90;99.90;;;;;;5075598;28;20226;-61
2022/06/15 08:29:26;;;;;;;12.07;4.73;;;22.00;99.90;;;;;;5057508;28;20196;-61
2022/06/15 08:31:57;;;;;;;7.97;3.80;;;22.20;99.90;;;;;;5075474;28;20232;-61
2022/06/15 08:34:26;;;;;;;7.70;3.93;;;22.40;99.90;;;;;;5074365;28;20284;-61
2022/06/15 08:36:55;;;;;;;8.30;4.23;;;22.60;99.90;;;;;;5075360;28;20194;-61
2022/06/15 08:39:23;;;;;;;10.40;4.67;;;22.70;99.90;;;;;;5075731;28;20192;-61
2022/06/15 08:42:02;;;;;;;8.97;3.77;;;22.60;99.90;;;;;;5075233;28;20281;-60
2022/06/15 08:44:49;;;;;;;9.13;3.80;;;22.90;99.90;;;;;;5057902;28;20229;-60
2022/06/15 08:47:39;;;;;;;5.70;3.57;;;23.00;99.90;;;;;;5075723;28;20283;-60
2022/06/15 08:50:14;;;;;;;5.73;3.60;;;23.10;99.90;;;;;;5075202;28;20277;-61
2022/06/15 08:52:46;;;;;;;9.83;3.70;;;23.10;99.90;;;;;;5074936;28;20213;-60
2022/06/15 08:55:23;;;;;;;9.97;4.00;;;23.20;99.90;;;;;;5058227;28;20205;-61
2022/06/15 08:57:55;;;;;;;8.93;3.70;;;23.30;99.90;;;;;;5055109;28;20215;-61
2022/06/15 09:00:28;;;;;;;10.63;4.27;;;23.30;99.90;;;;;;5055153;28;20221;-61
2022/06/15 09:03:05;;;;;;;10.90;4.23;;;23.50;99.90;;;;;;5055108;28;20194;-61
2022/06/15 09:05:43;;;;;;;9.77;3.90;;;23.60;99.90;;;;;;5055109;28;20186;-61
2022/06/15 09:08:52;;;;;;;5.83;3.70;;;23.90;99.90;;;;;;5071647;28;20196;-61
2022/06/15 09:11:31;;;;;;;10.30;3.73;;;24.10;99.90;;;;;;5074992;28;20188;-61
2022/06/15 09:14:12;;;;;;;8.53;3.23;;;24.20;99.90;;;;;;5056737;28;20287;-62
2022/06/15 09:16:47;;;;;;;10.13;4.20;;;24.20;99.90;;;;;;5056879;28;20286;-61
2022/06/15 09:19:25;;;;;;;6.33;3.70;;;24.50;99.90;;;;;;5074823;28;20214;-61
2022/06/15 09:22:01;;;;;;;12.27;4.10;;;24.50;99.90;;;;;;5067014;28;20192;-61
2022/06/15 09:24:33;;;;;;;10.17;3.70;;;24.70;99.90;;;;;;5071428;28;20198;-61
2022/06/15 09:27:07;;;;;;;8.43;3.97;;;24.60;99.90;;;;;;5074517;28;20271;-61
2022/06/15 09:29:44;;;;;;;10.43;4.37;;;25.00;99.90;;;;;;5074676;28;20268;-61
2022/06/15 09:32:17;;;;;;;6.60;3.80;;;24.90;99.90;;;;;;5071205;28;20299;-61
2022/06/15 09:34:53;;;;;;;10.40;3.47;;;25.10;99.90;;;;;;5054765;28;20198;-61
2022/06/15 09:37:25;;;;;;;11.53;4.30;;;24.90;99.90;;;;;;5039724;28;20218;-60
2022/06/15 09:39:53;;;;;;;8.30;3.67;;;24.90;99.90;;;;;;5056498;28;20183;-61
2022/06/15 09:42:24;;;;;;;6.20;4.10;;;25.20;99.90;;;;;;5074401;28;20271;-60
2022/06/15 09:45:03;;;;;;;8.03;3.73;;;25.50;99.90;;;;;;5074348;28;20216;-60
2022/06/15 09:47:43;;;;;;;4.77;3.50;;;25.70;99.90;;;;;;5056444;28;20704;-61
2022/06/15 09:50:26;;;;;;;6.03;3.20;;;25.80;99.90;;;;;;5074129;28;20216;-61
2022/06/15 09:53:05;;;;;;;10.80;4.10;;;26.00;99.90;;;;;;5074140;28;20540;-61
2022/06/15 09:55:41;;;;;;;7.37;3.43;;;26.00;99.90;;;;;;5073195;28;20196;-61
2022/06/15 09:58:35;;;;;;;8.67;3.90;;;26.10;99.90;;;;;;5074217;28;20181;-61
2022/06/15 10:01:07;;;;;;;8.18;4.20;;;26.20;99.90;;;;;;5073561;28;20234;-61
2022/06/15 10:03:43;;;;;;;7.18;3.50;;;26.40;99.90;;;;;;5074369;28;20206;-62
2022/06/15 10:06:21;;;;;;;8.25;3.67;;;26.50;99.90;;;;;;5056302;28;20250;-61
2022/06/15 10:08:49;;;;;;;6.25;3.40;;;26.70;99.90;;;;;;5055919;28;20230;-61
2022/06/15 10:11:29;;;;;;;10.07;3.78;;;26.70;99.90;;;;;;5055951;28;20282;-61
2022/06/15 10:13:57;;;;;;;10.88;4.03;;;26.70;99.90;;;;;;5073749;28;20214;-61
2022/06/15 10:16:31;;;;;;;8.95;3.72;;;26.80;99.90;;;;;;5073257;28;20228;-61
2022/06/15 10:19:08;;;;;;;9.88;4.50;;;26.90;99.90;;;;;;5073567;28;20598;-62
2022/06/15 10:21:40;;;;;;;7.70;3.85;;;26.80;99.90;;;;;;5073752;28;20638;-62
2022/06/15 10:24:22;;;;;;;8.50;4.07;;;26.90;99.90;;;;;;5073763;28;20534;-62
2022/06/15 10:26:53;;;;;;;8.52;3.85;;;27.20;99.90;;;;;;5073117;28;20223;-62
2022/06/15 10:29:26;;;;;;;9.05;3.80;;;27.30;99.90;;;;;;5055721;28;20284;-62
2022/06/15 10:32:04;;;;;;;8.52;3.53;;;27.60;99.90;;;;;;5060963;28;20749;-62
2022/06/15 10:34:34;;;;;;;8.82;4.57;;;27.60;99.90;;;;;;5063256;28;20661;-61
2022/06/15 10:37:08;;;;;;;9.70;4.35;;;27.60;99.90;;;;;;5055503;28;20184;-62
2022/06/15 10:39:40;;;;;;;10.98;3.92;;;27.80;99.90;;;;;;5055387;28;20191;-62
2022/06/15 10:42:11;;;;;;;10.13;4.63;;;27.80;99.90;;;;;;5073174;28;20212;-62
2022/06/15 10:44:42;;;;;;;11.70;4.32;;;27.80;99.90;;;;;;5073509;28;20188;-62
2022/06/15 10:47:22;;;;;;;7.38;3.80;;;27.80;99.90;;;;;;5073369;28;20214;-62
2022/06/15 10:49:53;;;;;;;9.45;3.88;;;28.10;99.90;;;;;;5073193;28;20188;-62
2022/06/15 10:52:26;;;;;;;11.18;3.60;;;28.20;99.90;;;;;;5073198;28;20254;-62
2022/06/15 11:04:07;;;;;;;7.72;4.00;;;28.50;99.90;;;;;;5058209;28;20188;-62
2022/06/15 11:06:46;;;;;;;6.63;3.60;;;28.30;99.90;;;;;;5063537;28;20196;-62
2022/06/15 11:09:20;;;;;;;7.80;3.75;;;28.60;99.90;;;;;;5072709;28;20278;-62
2022/06/15 11:11:51;;;;;;;11.00;3.95;;;28.90;99.90;;;;;;5073047;28;20660;-62
2022/06/15 11:14:27;;;;;;;10.73;3.90;;;28.80;99.90;;;;;;5072794;28;20685;-61
2022/06/15 11:20:07;;;;;;;8.07;4.00;;;28.80;99.90;;;;;;5073262;28;20194;-61
2022/06/15 11:22:36;;;;;;;7.68;3.33;;;29.10;99.90;;;;;;5057736;28;20198;-62
2022/06/15 11:25:12;;;;;;;7.60;3.65;;;29.20;99.90;;;;;;5053022;28;20195;-62
2022/06/15 11:27:46;;;;;;;9.55;3.95;;;29.10;99.90;;;;;;5021173;28;20254;-61
2022/06/15 11:30:23;;;;;;;7.47;4.13;;;29.10;99.90;;;;;;5057037;28;20700;-62
2022/06/15 11:33:00;;;;;;;6.20;3.33;;;29.10;99.90;;;;;;5057520;28;20296;-61
2022/06/15 11:35:38;;;;;;;9.55;3.95;;;29.00;99.90;;;;;;5073787;28;20665;-61
2022/06/15 11:38:17;;;;;;;6.38;3.15;;;28.90;99.90;;;;;;5071641;28;20206;-61
2022/06/15 11:41:13;;;;;;;8.48;3.50;;;28.70;99.90;;;;;;5096971;28;20214;-61
2022/06/15 11:43:47;;;;;;;12.77;3.65;;;28.70;99.90;;;;;;5097044;28;20208;-61
2022/06/15 11:46:53;;;;;;;4.40;3.20;;;28.50;99.90;;;;;;5097206;28;20197;-61
2022/06/15 11:54:24;;;;;;;6.60;4.03;;;28.30;99.90;;;;;;5056817;28;20195;-61
2022/06/15 11:57:01;;;;;;;6.40;3.75;;;28.20;99.90;;;;;;5041273;28;20202;-61
2022/06/15 11:59:40;;;;;;;6.38;3.25;;;28.20;99.90;;;;;;5076984;28;20258;-61
2022/06/15 12:02:46;;;;;;;12.02;3.40;;;28.30;99.90;;;;;;5071815;28;20275;-61
2022/06/15 12:05:30;;;;;;;6.80;3.80;;;28.30;99.90;;;;;;5076200;28;20272;-62
2022/06/15 12:14:55;;;;;;;9.45;3.80;;;28.40;99.90;;;;;;5038260;28;20747;-61
2022/06/15 12:21:02;;;;;;;6.32;3.95;;;28.60;99.90;;;;;;5055951;28;20275;-61
2022/06/15 12:23:42;;;;;;;6.65;3.60;;;28.50;99.90;;;;;;5055832;28;20192;-61
2022/06/15 12:26:45;;;;;;;4.82;3.63;;;28.30;99.90;;;;;;5056155;28;20708;-61
2022/06/15 12:29:28;;;;;;;7.65;3.38;;;28.60;99.90;;;;;;5071294;28;20202;-62
2022/06/15 12:32:13;;;;;;;4.43;3.60;;;28.50;99.90;;;;;;5055533;28;20238;-61
2022/06/15 12:35:03;;;;;;;4.10;3.07;;;28.60;99.90;;;;;;5054379;28;20215;-61
2022/06/15 12:38:01;;;;;;;7.67;3.60;;;28.70;99.90;;;;;;5059186;28;20653;-61
2022/06/15 12:42:09;;;;;;;11.05;3.47;;;28.80;99.90;;;;;;5075359;28;20306;-61
2022/06/15 12:48:33;;;;;;;5.73;3.53;;;28.80;99.90;;;;;;5089006;28;20615;-61
2022/06/15 12:51:10;;;;;;;7.88;3.65;;;28.60;99.70;;;;;;5075668;28;20191;-61
2022/06/15 12:53:52;;;;;;;5.10;2.93;;;28.50;99.20;;;;;;5075604;28;20306;-61
2022/06/15 13:00:20;;;;;;;9.60;3.30;;;28.30;99.90;;;;;;5088531;28;20272;-62
2022/06/15 13:02:58;;;;;;;7.90;3.55;;;28.40;99.90;;;;;;5095476;28;20193;-61
2022/06/15 13:05:31;;;;;;;5.57;2.75;;;28.50;99.60;;;;;;5077222;28;20196;-62
2022/06/15 13:08:25;;;;;;;7.75;3.25;;;28.60;99.90;;;;;;5095407;28;20183;-61
2022/06/15 13:11:12;;;;;;;4.80;3.23;;;28.60;99.90;;;;;;5082482;28;20560;-61
2022/06/15 13:13:45;;;;;;;8.52;3.47;;;28.80;99.90;;;;;;5075133;28;20196;-61
2022/06/15 13:16:55;;;;;;;7.85;3.75;;;28.90;99.90;;;;;;5074782;28;20275;-61
2022/06/15 13:19:30;;;;;;;4.75;3.17;;;28.90;99.90;;;;;;5055888;28;20220;-61
2022/06/15 13:26:26;;;;;;;4.32;3.13;;;29.20;99.90;;;;;;5074562;28;20180;-62
2022/06/15 13:29:21;;;;;;;4.50;2.75;;;29.20;99.90;;;;;;5074667;28;20280;-61
2022/06/15 13:31:58;;;;;;;6.70;3.00;;;29.10;99.90;;;;;;5054577;28;20697;-61
2022/06/15 13:38:56;;;;;;;5.53;2.90;;;28.90;99.90;;;;;;5074190;28;20275;-61
2022/06/15 13:41:31;;;;;;;5.93;3.10;;;28.80;99.90;;;;;;5074195;28;20250;-61
2022/06/15 13:44:28;;;;;;;6.78;3.17;;;28.90;99.70;;;;;;5074488;28;20188;-61
2022/06/15 13:47:39;;;;;;;4.90;2.70;;;28.90;99.90;;;;;;5056195;28;20277;-61
2022/06/15 13:50:15;;;;;;;2.70;2.50;;;29.00;99.90;;;;;;5061847;28;20660;-61
2022/06/15 13:52:47;;;;;;;4.22;2.72;;;29.10;99.70;;;;;;5073617;28;20243;-61
2022/06/15 13:56:07;;;;;;;3.63;2.50;;;29.20;99.90;;;;;;5073510;28;20310;-62
2022/06/15 14:02:57;;;;;;;3.22;2.85;;;29.60;99.90;;;;;;5033984;28;20182;-61
2022/06/15 14:06:05;;;;;;;5.13;3.10;;;30.40;99.90;;;;;;5033868;28;20226;-61
2022/06/15 14:08:54;;;;;;;4.90;2.67;;;30.40;99.90;;;;;;5033857;28;20233;-61
2022/06/15 14:12:01;;;;;;;3.63;2.45;;;30.40;99.90;;;;;;5034158;28;20195;-62
2022/06/15 14:18:37;;;;;;;5.80;3.17;;;30.10;99.90;;;;;;5014049;28;20182;-62
2022/06/15 14:21:17;;;;;;;7.63;2.78;;;30.40;99.90;;;;;;5014306;28;20194;-61